createdAt,value
2019-05-21T00:02:22.305Z,12.10
2019-05-21T00:05:26.748Z,12.10
2019-05-21T00:08:30.729Z,12.00
2019-05-21T00:11:34.987Z,12.10
2019-05-21T00:14:39.146Z,12.10
2019-05-21T00:17:43.309Z,12.10
2019-05-21T00:20:47.335Z,12.10
2019-05-21T00:23:51.503Z,12.00
2019-05-21T00:26:55.630Z,11.90
2019-05-21T00:30:35.743Z,11.90
2019-05-21T00:34:15.809Z,11.90
2019-05-21T00:37:55.769Z,12.00
2019-05-21T00:41:35.882Z,11.90
2019-05-21T00:44:42.929Z,12.00
2019-05-21T00:47:47.089Z,12.00
2019-05-21T00:50:51.440Z,12.00
2019-05-21T00:53:55.459Z,12.00
2019-05-21T00:56:59.554Z,12.10
2019-05-21T01:00:04.198Z,12.10
2019-05-21T01:03:08.625Z,12.10
2019-05-21T01:06:12.894Z,12.10
2019-05-21T01:09:17.066Z,12.00
2019-05-21T01:12:21.166Z,12.00
2019-05-21T01:15:25.316Z,12.00
2019-05-21T01:18:29.376Z,12.00
2019-05-21T01:21:33.525Z,11.90
2019-05-21T01:24:37.679Z,11.80
2019-05-21T01:27:41.921Z,11.80
2019-05-21T01:30:45.850Z,11.80
2019-05-21T01:33:49.706Z,11.70
2019-05-21T01:36:53.575Z,11.60
2019-05-21T01:39:57.460Z,11.50
2019-05-21T01:43:03.366Z,11.60
2019-05-21T01:46:06.860Z,11.60
2019-05-21T01:49:10.682Z,11.70
2019-05-21T01:52:14.595Z,11.70
2019-05-21T01:55:18.428Z,11.80
2019-05-21T01:58:22.339Z,11.80
2019-05-21T02:01:26.215Z,11.70
2019-05-21T02:04:30.111Z,11.70
2019-05-21T02:07:33.933Z,11.50
2019-05-21T02:10:37.830Z,11.50
2019-05-21T02:13:41.724Z,11.40
2019-05-21T02:16:45.589Z,11.30
2019-05-21T02:19:49.442Z,11.40
2019-05-21T02:22:53.351Z,11.30
2019-05-21T02:25:57.213Z,11.40
2019-05-21T02:29:01.121Z,11.40
2019-05-21T02:32:04.961Z,11.40
2019-05-21T02:35:08.901Z,11.60
2019-05-21T02:38:12.760Z,11.80
2019-05-21T02:41:16.629Z,11.80
2019-05-21T02:44:20.476Z,11.80
2019-05-21T02:47:24.410Z,11.90
2019-05-21T02:50:28.231Z,11.80
2019-05-21T02:53:34.600Z,11.90
2019-05-21T02:56:37.635Z,11.90
2019-05-21T02:59:43.137Z,11.90
2019-05-21T03:02:47.000Z,11.90
2019-05-21T03:05:50.905Z,11.90
2019-05-21T03:08:54.735Z,12.00
2019-05-21T03:11:58.639Z,12.10
2019-05-21T03:15:02.470Z,12.00
2019-05-21T03:18:06.357Z,12.10
2019-05-21T03:21:10.210Z,12.20
2019-05-21T03:24:14.122Z,12.20
2019-05-21T03:27:17.953Z,12.20
2019-05-21T03:30:21.878Z,12.30
2019-05-21T03:33:25.750Z,12.40
2019-05-21T03:36:33.352Z,12.40
2019-05-21T03:39:35.161Z,12.50
2019-05-21T03:42:39.090Z,12.60
2019-05-21T03:45:42.910Z,12.60
2019-05-21T03:48:46.837Z,12.50
2019-05-21T03:51:50.741Z,12.60
2019-05-21T03:54:54.679Z,12.60
2019-05-21T03:57:58.547Z,12.60
2019-05-21T04:01:02.422Z,12.70
2019-05-21T04:04:06.283Z,12.70
2019-05-21T04:07:10.156Z,12.70
2019-05-21T04:10:15.483Z,12.80
2019-05-21T04:13:20.328Z,12.90
2019-05-21T04:16:32.018Z,12.90
2019-05-21T04:19:42.680Z,12.90
2019-05-21T04:22:55.209Z,13.00
2019-05-21T04:25:59.262Z,13.10
2019-05-21T04:29:03.095Z,13.20
2019-05-21T04:32:07.051Z,13.20
2019-05-21T04:35:10.931Z,13.30
2019-05-21T04:38:14.790Z,13.40
2019-05-21T04:41:18.657Z,13.60
2019-05-21T04:44:22.549Z,13.70
2019-05-21T04:47:26.362Z,13.70
2019-05-21T04:50:30.311Z,13.80
2019-05-21T04:53:34.238Z,13.90
2019-05-21T04:56:38.099Z,14.00
2019-05-21T04:59:42.002Z,14.00
2019-05-21T05:02:45.810Z,14.10
2019-05-21T05:05:49.727Z,14.10
2019-05-21T05:08:53.612Z,14.20
2019-05-21T05:11:57.485Z,14.30
2019-05-21T05:15:01.348Z,14.30
2019-05-21T05:18:05.400Z,14.40
2019-05-21T05:21:09.214Z,14.60
2019-05-21T05:24:13.110Z,14.60
2019-05-21T05:27:16.996Z,14.80
2019-05-21T05:30:21.013Z,14.80
2019-05-21T05:33:24.921Z,15.00
2019-05-21T05:36:28.830Z,15.20
2019-05-21T05:39:32.740Z,15.20
2019-05-21T05:42:36.609Z,15.30
2019-05-21T05:45:40.510Z,15.40
2019-05-21T05:48:55.107Z,15.50
2019-05-21T05:51:59.019Z,15.60
2019-05-21T05:55:02.931Z,15.70
2019-05-21T05:58:06.870Z,15.90
2019-05-21T06:01:10.731Z,16.10
2019-05-21T06:04:14.620Z,16.30
2019-05-21T06:07:18.540Z,16.50
2019-05-21T06:10:22.416Z,16.80
2019-05-21T06:13:26.350Z,17.00
2019-05-21T06:16:30.156Z,17.10
2019-05-21T06:19:34.027Z,17.20
2019-05-21T06:22:37.846Z,17.30
2019-05-21T06:25:41.732Z,17.30
2019-05-21T06:28:45.639Z,17.30
2019-05-21T06:31:49.451Z,17.30
2019-05-21T06:34:53.334Z,17.40
2019-05-21T06:37:57.209Z,17.50
2019-05-21T06:41:01.100Z,17.60
2019-05-21T06:44:05.225Z,17.70
2019-05-21T06:47:09.049Z,17.80
2019-05-21T06:50:13.170Z,17.90
2019-05-21T06:53:17.020Z,17.90
2019-05-21T06:56:20.896Z,18.00
2019-05-21T06:59:24.728Z,18.00
2019-05-21T07:02:28.614Z,18.10
2019-05-21T07:05:32.497Z,18.30
2019-05-21T07:08:36.421Z,18.30
2019-05-21T07:11:40.230Z,18.50
2019-05-21T07:14:44.090Z,18.60
2019-05-21T07:17:48.005Z,18.70
2019-05-21T07:20:51.833Z,18.80
2019-05-21T07:23:55.708Z,18.80
2019-05-21T07:26:59.654Z,18.80
2019-05-21T07:30:05.081Z,19.00
2019-05-21T07:33:09.036Z,19.20
2019-05-21T07:36:12.981Z,19.20
2019-05-21T07:39:16.879Z,19.20
2019-05-21T07:42:20.745Z,19.20
2019-05-21T07:45:24.589Z,19.20
2019-05-21T07:48:28.487Z,19.10
2019-05-21T07:51:32.284Z,19.10
2019-05-21T07:54:36.166Z,18.90
2019-05-21T07:57:40.013Z,18.90
2019-05-21T08:00:43.969Z,18.80
2019-05-21T08:03:47.826Z,18.80
2019-05-21T08:06:51.761Z,18.70
2019-05-21T08:09:55.589Z,18.60
2019-05-21T08:12:59.497Z,18.60
2019-05-21T08:16:03.336Z,18.50
2019-05-21T08:19:07.277Z,18.60
2019-05-21T08:22:11.118Z,18.50
2019-05-21T08:25:15.247Z,18.50
2019-05-21T08:28:19.176Z,18.50
2019-05-21T08:31:23.061Z,18.60
2019-05-21T08:34:26.942Z,18.50
2019-05-21T08:37:30.797Z,18.60
2019-05-21T08:40:34.707Z,18.60
2019-05-21T08:43:38.560Z,18.60
2019-05-21T08:46:42.398Z,18.60
2019-05-21T08:49:46.442Z,18.60
2019-05-21T08:52:50.309Z,18.70
2019-05-21T08:55:54.247Z,18.60
2019-05-21T08:58:58.118Z,18.80
2019-05-21T09:02:01.977Z,19.00
2019-05-21T09:05:07.933Z,19.00
2019-05-21T09:08:11.785Z,19.10
2019-05-21T09:11:15.676Z,19.20
2019-05-21T09:14:19.557Z,19.30
2019-05-21T09:17:24.879Z,19.40
2019-05-21T09:20:28.749Z,19.40
2019-05-21T09:23:32.644Z,19.60
2019-05-21T09:26:36.526Z,19.90
2019-05-21T09:29:40.389Z,19.70
2019-05-21T09:32:44.263Z,19.80
2019-05-21T09:35:48.115Z,19.90
2019-05-21T09:38:51.952Z,19.80
2019-05-21T09:41:55.830Z,19.50
2019-05-21T09:44:59.700Z,19.40
2019-05-21T09:48:03.566Z,19.00
2019-05-21T09:51:07.439Z,18.90
2019-05-21T09:54:11.402Z,18.90
2019-05-21T09:57:16.826Z,18.80
2019-05-21T10:00:34.129Z,18.90
2019-05-21T10:03:42.205Z,18.60
2019-05-21T10:06:46.187Z,18.60
2019-05-21T10:09:49.990Z,18.30
2019-05-21T10:12:53.851Z,18.10
2019-05-21T10:16:01.206Z,18.10
2019-05-21T10:19:03.796Z,18.00
2019-05-21T10:22:07.778Z,18.00
2019-05-21T10:25:12.117Z,18.00
2019-05-21T10:28:15.963Z,18.00
2019-05-21T10:31:19.832Z,17.90
2019-05-21T10:34:23.784Z,17.90
2019-05-21T10:37:27.691Z,17.80
2019-05-21T10:40:31.632Z,17.90
2019-05-21T10:43:35.515Z,17.70
2019-05-21T10:46:39.350Z,17.60
2019-05-21T10:49:43.261Z,17.70
2019-05-21T10:52:47.109Z,17.70
2019-05-21T10:55:50.980Z,17.70
2019-05-21T10:58:54.824Z,17.70
2019-05-21T11:02:15.240Z,17.50
2019-05-21T11:05:28.853Z,17.60
2019-05-21T11:08:31.923Z,17.50
2019-05-21T11:11:35.777Z,17.50
2019-05-21T11:14:39.661Z,17.50
2019-05-21T11:17:59.009Z,17.50
2019-05-21T11:20:48.966Z,17.50
2019-05-21T11:23:52.941Z,17.50
2019-05-21T11:26:56.946Z,17.50
2019-05-21T11:30:00.795Z,17.50
2019-05-21T11:33:04.712Z,17.60
2019-05-21T11:36:08.536Z,17.60
2019-05-21T11:39:12.491Z,17.60
2019-05-21T11:42:16.397Z,17.50
2019-05-21T11:45:31.769Z,17.50
2019-05-21T11:48:26.015Z,17.50
2019-05-21T11:51:29.981Z,17.50
2019-05-21T11:54:33.796Z,17.40
2019-05-21T11:57:37.739Z,17.40
2019-05-21T12:00:41.828Z,17.30
2019-05-21T12:03:45.741Z,17.30
2019-05-21T12:06:49.585Z,17.30
2019-05-21T12:09:53.469Z,17.30
2019-05-21T12:12:57.321Z,17.40
2019-05-21T12:16:01.208Z,17.30
2019-05-21T12:19:07.994Z,17.30
2019-05-21T12:22:10.789Z,17.30
2019-05-21T12:25:14.684Z,17.30
2019-05-21T12:28:18.577Z,17.30
2019-05-21T12:31:22.427Z,17.30
2019-05-21T12:34:26.353Z,17.30
2019-05-21T12:37:30.222Z,17.30
2019-05-21T12:40:34.109Z,17.30
2019-05-21T12:43:37.948Z,17.20
2019-05-21T12:46:41.823Z,17.20
2019-05-21T12:49:45.695Z,17.20
2019-05-21T12:52:49.588Z,17.20
2019-05-21T12:55:53.470Z,17.10
2019-05-21T12:59:00.673Z,17.10
2019-05-21T13:02:02.882Z,17.10
2019-05-21T13:05:11.085Z,17.10
2019-05-21T13:08:13.420Z,17.10
2019-05-21T13:11:17.326Z,17.10
2019-05-21T13:14:21.199Z,17.10
2019-05-21T13:17:25.073Z,17.00
2019-05-21T13:20:28.981Z,17.00
2019-05-21T13:23:32.846Z,17.00
2019-05-21T13:26:36.706Z,17.00
2019-05-21T13:29:40.615Z,17.00
2019-05-21T13:32:44.479Z,16.90
2019-05-21T13:35:48.358Z,17.00
2019-05-21T13:38:52.178Z,16.90
2019-05-21T13:41:56.061Z,16.90
2019-05-21T13:44:59.927Z,16.80
2019-05-21T13:48:03.832Z,16.90
2019-05-21T13:51:07.714Z,16.80
2019-05-21T13:54:11.577Z,16.70
2019-05-21T13:57:15.461Z,16.70
2019-05-21T14:00:24.946Z,16.70
2019-05-21T14:03:28.800Z,16.70
2019-05-21T14:06:32.768Z,16.60
2019-05-21T14:09:36.582Z,16.60
2019-05-21T14:12:40.553Z,16.50
2019-05-21T14:15:44.405Z,16.40
2019-05-21T14:18:48.313Z,16.50
2019-05-21T14:21:52.282Z,16.40
2019-05-21T14:24:56.189Z,16.40
2019-05-21T14:28:00.029Z,16.40
2019-05-21T14:31:04.408Z,16.30
2019-05-21T14:34:08.388Z,16.30
2019-05-21T14:37:12.281Z,16.20
2019-05-21T16:45:10.646Z,14.70
2019-05-21T16:48:14.539Z,14.70
2019-05-21T16:51:20.109Z,14.70
2019-05-21T16:54:24.123Z,14.70
2019-05-21T17:09:15.957Z,14.60
2019-05-21T17:12:19.829Z,14.60
2019-05-21T17:15:30.528Z,14.50
2019-05-21T17:18:34.752Z,14.60
2019-05-21T17:21:41.435Z,14.60
2019-05-21T17:24:45.304Z,14.60
2019-05-21T17:27:56.574Z,14.60
2019-05-21T17:35:04.324Z,14.60
2019-05-21T17:38:25.095Z,14.60
2019-05-21T17:41:25.627Z,14.60
2019-05-21T17:44:29.781Z,14.60
2019-05-21T17:59:11.600Z,14.50
2019-05-21T18:02:16.355Z,14.70
2019-05-21T18:05:25.455Z,14.60
2019-05-21T18:08:30.924Z,14.60
2019-05-21T18:11:35.153Z,14.60
2019-05-21T19:19:21.247Z,14.50
2019-05-21T19:22:27.594Z,14.50
2019-05-21T19:25:31.481Z,14.50
2019-05-21T19:28:35.835Z,14.50
2019-05-21T19:31:39.910Z,14.50
2019-05-21T19:34:44.245Z,14.50
2019-05-21T19:37:49.087Z,14.50
2019-05-21T19:40:53.630Z,14.50
2019-05-21T19:43:58.455Z,14.50
2019-05-21T19:47:02.965Z,14.50
2019-05-21T19:50:08.239Z,14.40
2019-05-21T19:53:12.719Z,14.40
2019-05-21T19:56:17.619Z,14.40
2019-05-21T19:59:22.978Z,14.30
2019-05-21T20:02:29.915Z,14.40
2019-05-21T20:05:34.101Z,14.40
2019-05-21T20:08:38.288Z,14.30
2019-05-21T20:11:42.541Z,14.30
2019-05-21T20:14:46.931Z,14.30
2019-05-21T20:18:06.234Z,14.30
2019-05-21T20:20:59.608Z,14.20
2019-05-21T20:24:12.797Z,14.30
2019-05-21T20:27:17.920Z,14.30
2019-05-21T20:30:24.437Z,14.30
2019-05-21T20:33:29.336Z,14.30
2019-05-21T20:36:35.476Z,14.30
2019-05-21T20:39:41.093Z,14.30
2019-05-21T20:42:46.981Z,14.30
2019-05-21T20:45:51.041Z,14.30
2019-05-21T20:48:55.609Z,14.20
2019-05-21T20:52:18.022Z,14.30
2019-05-21T20:55:14.328Z,14.30
2019-05-21T20:58:18.958Z,14.30
2019-05-21T21:01:25.249Z,14.30
2019-05-21T21:04:29.963Z,14.30
2019-05-21T21:07:35.153Z,14.30
2019-05-21T21:10:40.256Z,14.30
2019-05-21T21:13:45.199Z,14.30
2019-05-21T21:16:49.801Z,14.20
2019-05-21T21:19:54.043Z,14.20
2019-05-21T21:22:58.084Z,14.20
2019-05-21T21:26:02.479Z,14.20
2019-05-21T21:29:07.209Z,14.20
2019-05-21T21:32:11.392Z,14.10
2019-05-21T21:35:16.016Z,14.10
2019-05-21T21:38:24.946Z,14.10
2019-05-21T21:41:29.541Z,14.10
2019-05-21T21:44:34.536Z,14.00
2019-05-21T21:47:38.583Z,14.00
2019-05-21T21:50:42.764Z,14.10
2019-05-21T21:53:47.304Z,14.10
2019-05-21T21:56:51.212Z,14.10
2019-05-21T21:59:55.706Z,14.10
2019-05-21T22:03:02.535Z,14.10
2019-05-21T22:06:09.154Z,14.10
2019-05-21T22:09:16.296Z,14.10
2019-05-21T22:12:20.515Z,14.10
2019-05-21T22:15:24.708Z,14.10
2019-05-21T22:18:29.285Z,14.10
2019-05-21T22:21:34.332Z,14.10
2019-05-21T22:24:38.351Z,14.10
2019-05-21T22:27:42.198Z,14.10
2019-05-21T22:30:46.575Z,14.10
2019-05-21T22:33:50.444Z,14.10
2019-05-21T22:36:54.364Z,14.10
2019-05-21T22:40:11.676Z,14.10
2019-05-21T22:43:15.629Z,14.10
2019-05-21T22:46:19.552Z,14.10
2019-05-21T22:49:23.984Z,14.10
2019-05-21T22:52:27.998Z,14.00
2019-05-21T22:55:33.526Z,14.00
2019-05-21T22:58:37.507Z,14.00
2019-05-21T23:01:41.856Z,14.00
2019-05-21T23:04:45.956Z,14.00
2019-05-21T23:07:50.009Z,14.00
2019-05-21T23:10:53.903Z,14.00
2019-05-21T23:13:57.843Z,13.90
2019-05-21T23:17:01.931Z,13.90
2019-05-21T23:20:08.702Z,13.90
2019-05-21T23:23:12.949Z,13.90
2019-05-21T23:26:17.816Z,13.90
2019-05-21T23:29:22.943Z,13.80
2019-05-21T23:32:26.941Z,13.80
2019-05-21T23:35:30.979Z,13.80
2019-05-21T23:38:36.672Z,13.80
2019-05-21T23:41:41.837Z,13.80
2019-05-21T23:44:45.717Z,13.80
2019-05-21T23:47:50.187Z,13.90
2019-05-21T23:50:54.258Z,13.80
2019-05-21T23:53:58.726Z,13.80
2019-05-21T23:57:05.556Z,13.80
